createdAt,value
2023-03-18T00:00:02.014Z,70.05
2023-03-18T00:01:05.106Z,70.83
2023-03-18T00:02:08.129Z,70.57
2023-03-18T00:03:10.667Z,69.35
2023-03-18T00:04:14.734Z,68.10
2023-03-18T00:05:16.326Z,67.86
2023-03-18T00:06:21.906Z,66.97
2023-03-18T00:07:23.480Z,66.39
2023-03-18T00:08:26.145Z,66.00
2023-03-18T00:09:27.604Z,66.23
2023-03-18T00:10:30.634Z,66.23
2023-03-18T00:11:32.255Z,66.40
2023-03-18T00:12:35.017Z,67.51
2023-03-18T00:13:37.511Z,69.57
2023-03-18T00:14:40.053Z,70.02
2023-03-18T00:15:41.727Z,70.10
2023-03-18T00:16:44.435Z,72.78
2023-03-18T00:17:46.696Z,72.49
2023-03-18T00:18:49.702Z,73.36
2023-03-18T00:19:52.650Z,74.55
2023-03-18T00:20:55.393Z,75.08
2023-03-18T00:21:57.591Z,75.21
2023-03-18T00:23:00.215Z,74.55
2023-03-18T00:24:01.772Z,75.41
2023-03-18T00:25:05.699Z,75.72
2023-03-18T00:26:08.964Z,75.80
2023-03-18T00:27:11.508Z,76.43
2023-03-18T00:28:13.749Z,75.78
2023-03-18T00:29:16.434Z,76.61
2023-03-18T00:30:18.552Z,77.01
2023-03-18T00:31:21.231Z,76.78
2023-03-18T00:32:23.242Z,76.98
2023-03-18T00:33:25.941Z,78.19
2023-03-18T00:34:27.968Z,78.62
2023-03-18T00:35:32.387Z,78.21
2023-03-18T00:36:34.646Z,77.84
2023-03-18T00:37:37.577Z,77.98
2023-03-18T00:38:41.121Z,78.40
2023-03-18T00:39:44.341Z,78.81
2023-03-18T00:40:53.647Z,78.11
2023-03-18T00:41:57.983Z,77.79
2023-03-18T00:43:08.166Z,77.47
2023-03-18T00:44:11.403Z,76.99
2023-03-18T00:45:14.292Z,76.68
2023-03-18T00:46:18.880Z,76.36
2023-03-18T00:47:21.310Z,77.61
2023-03-18T00:48:24.327Z,78.92
2023-03-18T00:49:26.419Z,78.68
2023-03-18T00:50:29.284Z,78.32
2023-03-18T00:51:34.180Z,79.70
2023-03-18T00:52:37.380Z,79.92
2023-03-18T00:53:38.941Z,80.32
2023-03-18T00:54:41.951Z,80.64
2023-03-18T00:55:43.976Z,80.06
2023-03-18T00:56:47.141Z,77.98
2023-03-18T00:57:48.886Z,76.73
2023-03-18T00:58:52.593Z,76.62
2023-03-18T00:59:54.196Z,76.62
2023-03-18T01:00:57.097Z,77.59
2023-03-18T01:01:58.692Z,77.03
2023-03-18T01:03:01.470Z,77.62
2023-03-18T01:04:04.405Z,76.72
2023-03-18T01:05:07.358Z,75.20
2023-03-18T01:06:10.546Z,74.33
2023-03-18T01:07:15.426Z,73.56
2023-03-18T01:08:17.374Z,72.68
2023-03-18T01:09:19.836Z,72.29
2023-03-18T01:10:21.371Z,71.97
2023-03-18T01:11:24.682Z,71.58
2023-03-18T01:12:26.178Z,70.06
2023-03-18T01:13:28.739Z,69.58
2023-03-18T01:14:30.284Z,69.13
2023-03-18T01:15:32.835Z,70.31
2023-03-18T01:16:34.371Z,70.28
2023-03-18T01:17:37.489Z,69.88
2023-03-18T01:18:39.390Z,70.54
2023-03-18T01:19:42.408Z,70.16
2023-03-18T01:20:44.612Z,70.52
2023-03-18T01:21:47.230Z,70.10
2023-03-18T01:22:50.256Z,69.89
2023-03-18T01:23:53.377Z,69.62
2023-03-18T01:24:55.491Z,69.12
2023-03-18T01:25:59.021Z,68.26
2023-03-18T01:27:00.623Z,69.31
2023-03-18T01:28:03.173Z,69.42
2023-03-18T01:29:05.599Z,66.69
2023-03-18T01:30:09.960Z,66.90
2023-03-18T01:31:12.925Z,67.85
2023-03-18T01:32:16.076Z,67.12
2023-03-18T01:33:17.838Z,65.08
2023-03-18T01:34:21.584Z,66.67
2023-03-18T01:35:24.133Z,65.79
2023-03-18T01:36:26.684Z,64.54
2023-03-18T01:37:29.005Z,66.33
2023-03-18T01:38:33.454Z,64.11
2023-03-18T01:39:35.693Z,63.75
2023-03-18T01:40:40.482Z,63.12
2023-03-18T01:41:42.294Z,62.85
2023-03-18T01:42:49.634Z,62.87
2023-03-18T01:43:51.873Z,63.44
2023-03-18T01:45:16.196Z,63.26
2023-03-18T01:46:36.356Z,64.11
2023-03-18T01:47:38.881Z,62.78
2023-03-18T01:48:40.716Z,62.28
2023-03-18T01:49:48.357Z,62.39
2023-03-18T01:50:59.372Z,61.88
2023-03-18T01:52:07.657Z,62.61
2023-03-18T01:53:12.458Z,62.66
2023-03-18T01:54:18.697Z,62.87
2023-03-18T01:55:30.553Z,63.24
2023-03-18T01:56:36.302Z,63.35
2023-03-18T01:57:38.339Z,63.22
2023-03-18T01:58:43.296Z,63.20
2023-03-18T01:59:47.232Z,63.02
2023-03-18T02:00:54.475Z,62.57
2023-03-18T02:02:01.985Z,62.41
2023-03-18T02:03:06.159Z,62.91
2023-03-18T02:04:10.447Z,61.75
2023-03-18T02:05:18.963Z,61.46
2023-03-18T02:06:20.615Z,61.38
2023-03-18T02:07:28.611Z,61.24
2023-03-18T02:08:30.166Z,61.15
2023-03-18T02:09:34.133Z,61.39
2023-03-18T02:10:37.383Z,61.73
2023-03-18T02:11:43.616Z,61.59
2023-03-18T02:12:49.816Z,62.10
2023-03-18T02:13:52.486Z,61.70
2023-03-18T02:14:54.453Z,61.30
2023-03-18T02:16:04.828Z,60.82
2023-03-18T02:17:11.043Z,61.30
2023-03-18T02:18:19.445Z,61.05
2023-03-18T02:19:33.677Z,61.07
2023-03-18T02:20:50.607Z,61.24
2023-03-18T02:21:58.854Z,61.44
2023-03-18T02:23:09.932Z,61.37
2023-03-18T02:24:22.368Z,60.91
2023-03-18T02:25:37.901Z,60.99
2023-03-18T02:26:44.403Z,61.94
2023-03-18T02:27:52.380Z,61.50
2023-03-18T02:28:59.554Z,61.85
2023-03-18T02:30:05.614Z,61.45
2023-03-18T02:31:13.929Z,60.99
2023-03-18T02:32:17.619Z,60.92
2023-03-18T02:33:23.397Z,60.71
2023-03-18T02:34:25.849Z,60.39
2023-03-18T02:35:30.526Z,60.17
2023-03-18T02:36:34.012Z,59.92
2023-03-18T02:37:36.855Z,60.24
2023-03-18T02:38:41.716Z,60.25
2023-03-18T02:39:44.155Z,60.07
2023-03-18T02:40:45.691Z,59.93
2023-03-18T02:41:48.491Z,59.98
2023-03-18T02:42:52.383Z,60.03
2023-03-18T02:43:55.300Z,59.89
2023-03-18T02:44:57.833Z,60.06
2023-03-18T02:46:14.657Z,59.95
2023-03-18T02:47:21.083Z,60.35
2023-03-18T02:48:27.177Z,60.31
2023-03-18T02:49:29.017Z,60.65
2023-03-18T02:50:31.808Z,60.02
2023-03-18T02:51:35.544Z,60.14
2023-03-18T02:52:38.894Z,60.28
2023-03-18T02:53:41.810Z,60.09
2023-03-18T02:54:44.345Z,60.05
2023-03-18T02:55:46.565Z,60.22
2023-03-18T02:56:49.129Z,60.48
2023-03-18T02:57:51.955Z,60.74
2023-03-18T02:58:54.449Z,60.60
2023-03-18T02:59:56.243Z,60.34
2023-03-18T03:00:59.111Z,60.40
2023-03-18T03:02:01.661Z,60.01
2023-03-18T03:03:05.322Z,60.08
2023-03-18T03:04:07.587Z,60.03
2023-03-18T03:05:10.627Z,59.85
2023-03-18T03:06:12.620Z,59.72
2023-03-18T03:07:15.044Z,59.71
2023-03-18T03:08:16.571Z,59.97
2023-03-18T03:09:19.898Z,60.59
2023-03-18T03:10:21.553Z,60.89
2023-03-18T03:11:24.181Z,60.91
2023-03-18T03:12:25.813Z,61.09
2023-03-18T03:13:29.753Z,60.94
2023-03-18T03:14:31.291Z,61.17
2023-03-18T03:15:34.105Z,60.83
2023-03-18T03:16:36.180Z,60.47
2023-03-18T03:17:39.574Z,60.44
2023-03-18T03:18:42.077Z,60.86
2023-03-18T03:19:44.748Z,61.36
2023-03-18T03:20:46.689Z,61.70
2023-03-18T03:21:49.273Z,62.19
2023-03-18T03:22:51.077Z,62.83
2023-03-18T03:23:54.698Z,62.68
2023-03-18T03:24:56.207Z,62.65
2023-03-18T03:25:59.115Z,62.47
2023-03-18T03:27:01.062Z,62.54
2023-03-18T03:28:03.969Z,62.75
2023-03-18T03:29:07.882Z,62.89
2023-03-18T03:30:12.220Z,63.79
2023-03-18T03:31:15.671Z,63.53
2023-03-18T03:32:17.185Z,63.73
2023-03-18T03:33:19.739Z,63.86
2023-03-18T03:34:21.314Z,63.63
2023-03-18T03:35:25.107Z,63.38
2023-03-18T03:36:26.831Z,63.68
2023-03-18T03:37:29.611Z,63.76
2023-03-18T03:38:31.201Z,63.97
2023-03-18T03:39:33.958Z,64.11
2023-03-18T03:40:35.546Z,64.65
2023-03-18T03:41:38.058Z,64.50
2023-03-18T03:42:40.340Z,65.06
2023-03-18T03:43:43.418Z,65.38
2023-03-18T03:44:46.396Z,65.43
2023-03-18T03:45:49.036Z,65.04
2023-03-18T03:46:51.029Z,64.96
2023-03-18T03:47:53.920Z,64.65
2023-03-18T03:48:55.685Z,64.59
2023-03-18T03:49:58.223Z,65.11
2023-03-18T03:50:59.895Z,65.06
2023-03-18T03:52:02.811Z,65.16
2023-03-18T03:53:04.938Z,65.05
2023-03-18T03:54:07.536Z,65.21
2023-03-18T03:55:12.694Z,64.84
2023-03-18T03:56:15.763Z,64.45
2023-03-18T03:57:17.778Z,64.11
2023-03-18T03:58:20.416Z,64.36
2023-03-18T03:59:21.969Z,64.78
2023-03-18T04:00:26.228Z,64.64
2023-03-18T04:01:28.199Z,65.15
2023-03-18T04:02:30.739Z,65.35
2023-03-18T04:03:32.522Z,65.61
2023-03-18T04:04:35.094Z,65.35
2023-03-18T04:05:37.500Z,65.05
2023-03-18T04:06:40.033Z,64.60
2023-03-18T04:07:42.110Z,64.92
2023-03-18T04:08:44.608Z,64.78
2023-03-18T04:09:46.696Z,64.35
2023-03-18T04:10:49.205Z,64.25
2023-03-18T04:11:50.803Z,64.51
2023-03-18T04:12:53.298Z,64.30
2023-03-18T04:13:54.797Z,64.24
2023-03-18T04:14:57.406Z,64.16
2023-03-18T04:16:01.481Z,64.32
2023-03-18T04:17:03.115Z,64.47
2023-03-18T04:18:07.537Z,64.73
2023-03-18T04:19:10.304Z,65.74
2023-03-18T04:20:14.093Z,65.02
2023-03-18T04:21:16.358Z,64.73
2023-03-18T04:22:19.400Z,64.58
2023-03-18T04:23:20.982Z,64.08
2023-03-18T04:24:24.080Z,64.36
2023-03-18T04:25:26.466Z,64.57
2023-03-18T04:26:29.166Z,64.92
2023-03-18T04:27:30.880Z,64.99
2023-03-18T04:28:34.082Z,65.60
2023-03-18T04:29:35.838Z,66.29
2023-03-18T04:30:38.369Z,66.81
2023-03-18T04:31:41.706Z,67.48
2023-03-18T04:32:44.304Z,67.28
2023-03-18T04:33:45.887Z,68.18
2023-03-18T04:34:48.495Z,68.13
2023-03-18T04:35:52.724Z,68.04
2023-03-18T04:36:55.513Z,68.92
2023-03-18T04:37:57.054Z,68.15
2023-03-18T04:38:59.961Z,67.83
2023-03-18T04:40:01.613Z,67.69
2023-03-18T04:41:04.100Z,67.67
2023-03-18T04:42:05.797Z,67.47
2023-03-18T04:43:09.941Z,67.45
2023-03-18T04:44:11.830Z,67.21
2023-03-18T04:45:15.542Z,66.62
2023-03-18T04:46:17.190Z,67.02
2023-03-18T04:47:21.013Z,67.26
2023-03-18T04:48:22.505Z,67.09
2023-03-18T04:49:25.316Z,66.88
2023-03-18T04:50:27.859Z,66.11
2023-03-18T04:51:30.356Z,65.67
2023-03-18T04:52:31.930Z,66.13
2023-03-18T04:53:34.394Z,65.54
2023-03-18T04:54:37.299Z,65.35
2023-03-18T04:55:40.760Z,65.51
2023-03-18T04:56:43.660Z,65.20
2023-03-18T04:57:46.181Z,64.72
2023-03-18T04:58:47.750Z,64.52
2023-03-18T04:59:50.410Z,65.17
2023-03-18T05:00:52.589Z,64.29
2023-03-18T05:01:55.147Z,64.17
2023-03-18T05:02:58.148Z,64.17
2023-03-18T05:04:00.691Z,64.19
2023-03-18T05:05:02.527Z,65.01
2023-03-18T05:06:06.140Z,65.11
2023-03-18T05:07:08.613Z,65.61
2023-03-18T05:08:11.416Z,67.07
2023-03-18T05:09:13.334Z,66.44
2023-03-18T05:10:16.451Z,65.50
2023-03-18T05:11:18.773Z,64.85
2023-03-18T05:12:21.414Z,63.85
2023-03-18T05:13:24.070Z,64.10
2023-03-18T05:14:27.016Z,64.47
2023-03-18T05:15:28.795Z,64.52
2023-03-18T05:16:31.402Z,65.85
2023-03-18T05:17:33.073Z,66.68
2023-03-18T05:18:37.245Z,66.85
2023-03-18T05:19:38.757Z,66.68
2023-03-18T05:20:41.793Z,66.17
2023-03-18T05:21:43.306Z,65.83
2023-03-18T05:22:45.934Z,65.83
2023-03-18T05:23:47.568Z,65.43
2023-03-18T05:24:50.294Z,65.36
2023-03-18T05:25:52.342Z,67.43
2023-03-18T05:26:55.491Z,67.39
2023-03-18T05:27:57.898Z,68.47
2023-03-18T05:29:00.427Z,67.92
2023-03-18T05:30:02.244Z,67.77
2023-03-18T05:31:05.147Z,67.62
2023-03-18T05:32:07.604Z,67.12
2023-03-18T05:33:10.336Z,67.33
2023-03-18T05:34:13.467Z,66.40
2023-03-18T05:35:16.178Z,68.14
2023-03-18T05:36:17.674Z,69.51
2023-03-18T05:37:20.216Z,69.63
2023-03-18T05:38:22.333Z,69.35
2023-03-18T05:39:25.253Z,69.55
2023-03-18T05:40:26.811Z,70.64
2023-03-18T05:41:29.376Z,70.90
2023-03-18T05:42:30.955Z,71.45
2023-03-18T05:43:33.696Z,72.46
2023-03-18T05:44:35.386Z,72.76
2023-03-18T05:45:40.211Z,71.76
2023-03-18T05:46:43.273Z,71.67
2023-03-18T05:47:44.793Z,72.33
2023-03-18T05:48:47.272Z,72.06
2023-03-18T05:49:50.472Z,71.39
2023-03-18T05:50:52.979Z,70.32
2023-03-18T05:51:55.123Z,69.73
2023-03-18T05:52:58.028Z,70.70
2023-03-18T05:53:59.704Z,71.28
2023-03-18T05:55:02.540Z,69.92
2023-03-18T05:56:04.683Z,70.17
2023-03-18T05:57:07.415Z,69.65
2023-03-18T05:58:09.401Z,70.63
2023-03-18T05:59:12.548Z,70.28
2023-03-18T06:00:15.491Z,69.76
2023-03-18T06:01:17.935Z,68.84
2023-03-18T06:02:20.516Z,69.49
2023-03-18T06:03:22.512Z,70.82
2023-03-18T06:04:27.067Z,71.85
2023-03-18T06:05:31.182Z,72.40
2023-03-18T06:06:35.900Z,70.97
2023-03-18T06:07:37.625Z,70.58
2023-03-18T06:08:41.192Z,71.10
2023-03-18T06:09:43.273Z,70.40
2023-03-18T06:10:45.866Z,70.01
2023-03-18T06:11:47.448Z,70.80
2023-03-18T06:12:50.545Z,69.83
2023-03-18T06:13:52.256Z,68.93
2023-03-18T06:14:54.978Z,68.96
2023-03-18T06:15:57.195Z,69.32
2023-03-18T06:17:00.210Z,69.25
2023-03-18T06:18:01.774Z,69.59
2023-03-18T06:19:05.871Z,70.14
2023-03-18T06:20:09.470Z,70.24
2023-03-18T06:21:13.309Z,69.21
2023-03-18T06:22:17.003Z,68.80
2023-03-18T06:23:19.652Z,68.53
2023-03-18T06:24:21.207Z,68.11
2023-03-18T06:25:24.552Z,68.07
2023-03-18T06:26:26.660Z,68.48
2023-03-18T06:27:29.133Z,68.80
2023-03-18T06:28:30.913Z,68.24
2023-03-18T06:29:33.681Z,68.25
2023-03-18T06:30:35.611Z,67.94
2023-03-18T06:31:38.184Z,68.81
2023-03-18T06:32:40.560Z,69.39
2023-03-18T06:33:43.143Z,69.51
2023-03-18T06:34:45.493Z,69.58
2023-03-18T06:35:49.428Z,70.73
2023-03-18T06:36:52.399Z,69.85
2023-03-18T06:37:55.601Z,69.25
2023-03-18T06:38:57.580Z,70.17
2023-03-18T06:40:00.267Z,69.26
2023-03-18T06:41:03.128Z,70.22
2023-03-18T06:42:04.901Z,69.66
2023-03-18T06:43:07.400Z,69.59
2023-03-18T06:44:09.200Z,69.36
2023-03-18T06:45:12.896Z,68.96
2023-03-18T06:46:14.682Z,68.59
2023-03-18T06:47:18.325Z,68.35
2023-03-18T06:48:20.112Z,69.86
2023-03-18T06:49:22.565Z,69.85
2023-03-18T06:50:25.307Z,69.94
2023-03-18T06:51:26.891Z,69.58
2023-03-18T06:52:31.061Z,69.72
2023-03-18T06:53:33.315Z,69.37
2023-03-18T06:54:35.777Z,69.14
2023-03-18T06:55:37.995Z,69.32
2023-03-18T06:56:42.922Z,69.49
2023-03-18T06:57:46.757Z,68.40
2023-03-18T06:58:49.347Z,68.78
2023-03-18T06:59:51.083Z,68.78
2023-03-18T07:00:54.011Z,69.33
2023-03-18T07:01:55.813Z,69.51
2023-03-18T07:02:58.486Z,71.38
2023-03-18T07:04:00.688Z,71.96
2023-03-18T07:05:04.392Z,71.44
2023-03-18T07:06:07.841Z,71.20
2023-03-18T07:07:10.801Z,69.81
2023-03-18T07:08:15.546Z,69.66
2023-03-18T07:09:18.741Z,70.35
2023-03-18T07:10:22.882Z,69.11
2023-03-18T07:11:26.883Z,68.07
2023-03-18T07:12:28.578Z,67.69
2023-03-18T07:13:31.048Z,67.19
2023-03-18T07:14:32.589Z,66.67
2023-03-18T07:15:35.460Z,65.90
2023-03-18T07:16:37.200Z,65.58
2023-03-18T07:17:39.716Z,65.29
2023-03-18T07:18:42.669Z,64.75
2023-03-18T07:19:45.437Z,67.26
2023-03-18T07:20:46.996Z,66.90
2023-03-18T07:21:49.666Z,66.19
2023-03-18T07:22:51.498Z,65.41
2023-03-18T07:23:56.079Z,65.45
2023-03-18T07:24:57.653Z,65.16
2023-03-18T07:26:00.163Z,65.29
2023-03-18T07:27:01.725Z,64.96
2023-03-18T07:28:04.989Z,64.50
2023-03-18T07:29:06.853Z,64.94
2023-03-18T07:30:10.422Z,64.55
2023-03-18T07:31:12.025Z,64.25
2023-03-18T07:32:14.763Z,64.14
2023-03-18T07:33:16.291Z,65.31
2023-03-18T07:34:19.273Z,65.42
2023-03-18T07:35:21.955Z,65.49
2023-03-18T07:36:25.134Z,65.08
2023-03-18T07:37:27.506Z,64.62
2023-03-18T07:38:30.732Z,64.42
2023-03-18T07:39:33.886Z,64.51
2023-03-18T07:40:37.018Z,64.05
2023-03-18T07:41:38.505Z,64.58
2023-03-18T07:42:41.252Z,63.59
2023-03-18T07:43:43.614Z,63.25
2023-03-18T07:44:46.173Z,63.05
2023-03-18T07:45:47.775Z,62.79
2023-03-18T07:46:50.615Z,63.21
2023-03-18T07:47:53.389Z,62.71
2023-03-18T07:48:57.128Z,62.24
2023-03-18T07:49:59.383Z,62.91
2023-03-18T07:51:02.822Z,63.67
2023-03-18T07:52:04.783Z,62.91
2023-03-18T07:53:07.821Z,62.92
2023-03-18T07:54:09.348Z,62.49
2023-03-18T07:55:13.319Z,61.58
2023-03-18T07:56:14.823Z,61.28
2023-03-18T07:57:17.370Z,62.10
2023-03-18T07:58:18.949Z,61.38
2023-03-18T07:59:21.792Z,61.57
2023-03-18T08:00:23.514Z,62.01
2023-03-18T08:01:26.528Z,61.01
2023-03-18T08:02:28.718Z,60.70
2023-03-18T08:03:31.259Z,60.24
2023-03-18T08:04:32.936Z,60.55
2023-03-18T08:05:35.566Z,60.88
2023-03-18T08:06:37.887Z,60.94
2023-03-18T08:07:40.594Z,61.04
2023-03-18T08:08:42.983Z,60.80
2023-03-18T08:09:45.904Z,61.37
2023-03-18T08:10:48.798Z,61.19
2023-03-18T08:11:51.668Z,61.23
2023-03-18T08:12:54.226Z,60.18
2023-03-18T08:13:57.089Z,60.48
2023-03-18T08:14:59.922Z,61.16
2023-03-18T08:16:02.593Z,61.96
2023-03-18T08:17:04.140Z,62.00
2023-03-18T08:18:09.344Z,61.80
2023-03-18T08:19:11.227Z,63.53
2023-03-18T08:20:15.275Z,64.05
2023-03-18T08:21:17.763Z,64.17
2023-03-18T08:22:19.379Z,64.21
2023-03-18T08:23:22.442Z,63.95
2023-03-18T08:24:24.531Z,62.91
2023-03-18T08:25:27.362Z,61.92
2023-03-18T08:26:30.315Z,61.23
2023-03-18T08:27:33.107Z,61.59
2023-03-18T08:28:35.177Z,60.93
2023-03-18T08:29:37.988Z,60.36
2023-03-18T08:30:39.760Z,59.96
2023-03-18T08:31:42.956Z,59.72
2023-03-18T08:32:44.671Z,60.30
2023-03-18T08:33:47.545Z,61.36
2023-03-18T08:34:49.161Z,61.36
2023-03-18T08:35:52.111Z,61.48
2023-03-18T08:36:53.796Z,61.77
2023-03-18T08:37:57.144Z,61.15
2023-03-18T08:38:58.742Z,60.50
2023-03-18T08:40:02.069Z,60.45
2023-03-18T08:41:04.050Z,60.78
2023-03-18T08:42:08.257Z,60.24
2023-03-18T08:43:09.979Z,60.33
2023-03-18T08:44:12.615Z,60.92
2023-03-18T08:45:14.508Z,60.92
2023-03-18T08:46:17.888Z,61.93
2023-03-18T08:47:20.064Z,60.55
2023-03-18T08:48:24.160Z,59.98
2023-03-18T08:49:25.722Z,60.37
2023-03-18T08:50:29.835Z,59.50
2023-03-18T08:51:32.634Z,59.93
2023-03-18T08:52:35.545Z,59.91
2023-03-18T08:53:37.722Z,59.79
2023-03-18T08:54:40.502Z,60.67
2023-03-18T08:55:42.215Z,60.90
2023-03-18T08:56:45.030Z,60.16
2023-03-18T08:57:48.089Z,60.72
2023-03-18T08:58:51.168Z,60.64
2023-03-18T08:59:53.325Z,60.73
2023-03-18T09:00:56.710Z,61.42
2023-03-18T09:01:59.873Z,61.66
2023-03-18T09:03:01.869Z,62.00
2023-03-18T09:04:04.543Z,63.18
2023-03-18T09:05:06.848Z,63.19
2023-03-18T09:06:09.729Z,63.22
2023-03-18T09:07:14.753Z,62.66
2023-03-18T09:08:17.256Z,63.59
2023-03-18T09:09:18.873Z,64.15
2023-03-18T09:10:21.560Z,63.56
2023-03-18T09:11:23.830Z,63.55
2023-03-18T09:12:26.536Z,63.75
2023-03-18T09:13:29.404Z,63.94
2023-03-18T09:14:34.516Z,63.52
2023-03-18T09:15:36.344Z,63.26
2023-03-18T09:16:38.991Z,63.01
2023-03-18T09:17:56.628Z,63.69
2023-03-18T09:19:03.438Z,62.71
2023-03-18T09:20:05.720Z,62.30
2023-03-18T09:21:08.461Z,62.53
2023-03-18T09:22:10.402Z,62.25
2023-03-18T09:23:15.614Z,62.06
2023-03-18T09:24:17.741Z,61.52
2023-03-18T09:25:20.699Z,61.73
2023-03-18T09:26:22.448Z,61.49
2023-03-18T09:27:25.295Z,62.33
2023-03-18T09:28:29.164Z,61.38
2023-03-18T09:29:33.049Z,60.56
2023-03-18T09:30:35.267Z,60.17
2023-03-18T09:31:38.667Z,61.62
2023-03-18T09:32:41.040Z,61.29
2023-03-18T09:33:43.829Z,61.42
2023-03-18T09:34:46.385Z,61.73
2023-03-18T09:35:50.692Z,61.04
2023-03-18T09:36:52.540Z,61.25
2023-03-18T09:37:55.573Z,61.00
2023-03-18T09:38:58.055Z,61.12
2023-03-18T09:40:00.522Z,61.41
2023-03-18T09:41:08.931Z,62.08
2023-03-18T09:42:28.604Z,62.40
2023-03-18T09:43:46.149Z,61.60
2023-03-18T09:44:55.577Z,60.85
2023-03-18T09:46:06.901Z,60.35
2023-03-18T09:47:28.734Z,60.29
2023-03-18T09:48:56.774Z,60.16
2023-03-18T09:50:13.276Z,59.94
2023-03-18T09:51:28.422Z,59.83
2023-03-18T09:52:33.889Z,60.07
2023-03-18T09:53:44.082Z,59.54
2023-03-18T09:54:54.348Z,60.34
2023-03-18T09:56:00.918Z,60.56
2023-03-18T09:57:04.744Z,60.60
2023-03-18T09:58:16.394Z,61.05
2023-03-18T09:59:21.558Z,62.63
2023-03-18T10:00:30.019Z,62.64
2023-03-18T10:01:35.666Z,62.62
2023-03-18T10:02:43.281Z,62.02
2023-03-18T10:03:50.303Z,61.11
2023-03-18T10:04:57.484Z,60.81
2023-03-18T10:06:04.414Z,61.18
2023-03-18T10:07:14.326Z,60.75
2023-03-18T10:08:23.007Z,60.87
2023-03-18T10:09:29.946Z,60.46
2023-03-18T10:10:37.311Z,59.51
2023-03-18T10:11:43.806Z,59.59
2023-03-18T10:12:50.790Z,60.73
2023-03-18T10:14:14.107Z,60.92
2023-03-18T10:15:18.807Z,60.65
2023-03-18T10:16:27.463Z,60.22
2023-03-18T10:17:32.618Z,60.65
2023-03-18T10:18:38.017Z,60.68
2023-03-18T10:19:46.490Z,59.69
2023-03-18T10:21:00.242Z,59.11
2023-03-18T10:22:22.159Z,58.55
2023-03-18T10:23:36.592Z,58.00
2023-03-18T10:24:47.956Z,57.26
2023-03-18T10:25:54.884Z,57.58
2023-03-18T10:27:08.757Z,58.05
2023-03-18T10:28:41.609Z,56.97
2023-03-18T10:29:49.389Z,56.98
2023-03-18T10:31:02.766Z,57.95
2023-03-18T10:32:17.154Z,58.12
2023-03-18T10:33:27.913Z,58.04
2023-03-18T10:34:34.764Z,59.24
2023-03-18T10:35:42.293Z,58.99
2023-03-18T10:36:51.587Z,58.37
2023-03-18T10:37:57.778Z,57.39
2023-03-18T10:39:04.943Z,54.74
2023-03-18T10:40:14.943Z,51.65
2023-03-18T10:41:24.947Z,49.46
2023-03-18T10:42:32.842Z,49.46
2023-03-18T10:43:35.736Z,50.84
2023-03-18T10:44:41.668Z,52.28
2023-03-18T10:45:44.351Z,50.16
2023-03-18T10:46:48.703Z,48.23
2023-03-18T10:48:00.708Z,46.25
2023-03-18T10:49:08.454Z,45.23
2023-03-18T10:50:17.486Z,48.43
2023-03-18T10:51:24.600Z,47.75
2023-03-18T10:52:33.802Z,48.20
2023-03-18T10:53:43.860Z,47.50
2023-03-18T10:54:50.314Z,45.35
2023-03-18T10:56:00.436Z,46.49
2023-03-18T10:57:03.016Z,47.63
2023-03-18T10:58:14.966Z,47.89
2023-03-18T10:59:19.729Z,48.35
2023-03-18T11:00:28.977Z,46.15
2023-03-18T11:01:31.908Z,45.79
2023-03-18T11:02:36.398Z,45.73
2023-03-18T11:03:45.623Z,45.71
2023-03-18T11:04:50.608Z,46.48
2023-03-18T11:05:54.575Z,45.77
2023-03-18T11:06:59.645Z,45.85
2023-03-18T11:08:04.841Z,47.74
2023-03-18T11:09:09.446Z,50.00
2023-03-18T11:10:15.267Z,51.31
2023-03-18T11:11:22.840Z,51.73
2023-03-18T11:12:28.500Z,50.22
2023-03-18T11:13:30.202Z,50.62
2023-03-18T11:14:33.907Z,51.62
2023-03-18T11:15:38.410Z,51.39
2023-03-18T11:16:42.787Z,52.19
2023-03-18T11:17:49.769Z,53.23
2023-03-18T11:18:54.717Z,53.23
2023-03-18T11:20:05.797Z,54.21
2023-03-18T11:21:13.217Z,54.81
2023-03-18T11:22:22.342Z,55.01
2023-03-18T11:23:46.155Z,54.81
2023-03-18T11:25:02.529Z,54.42
2023-03-18T11:26:09.765Z,54.63
2023-03-18T11:27:36.591Z,53.75
2023-03-18T11:28:41.853Z,54.19
2023-03-18T11:29:47.005Z,54.98
2023-03-18T11:30:52.991Z,55.33
2023-03-18T11:31:58.348Z,54.93
2023-03-18T11:33:07.071Z,54.90
2023-03-18T11:34:10.139Z,53.34
2023-03-18T11:35:21.044Z,52.25
2023-03-18T11:36:24.174Z,51.53
2023-03-18T11:37:34.868Z,52.73
2023-03-18T11:38:37.478Z,53.27
2023-03-18T11:39:41.474Z,53.23
2023-03-18T11:40:43.838Z,53.30
2023-03-18T11:41:46.418Z,54.02
2023-03-18T11:42:48.866Z,53.76
2023-03-18T11:44:01.663Z,53.63
2023-03-18T11:45:19.722Z,53.24
2023-03-18T11:46:24.909Z,50.92
2023-03-18T11:47:30.230Z,47.89
2023-03-18T11:48:37.002Z,44.72
2023-03-18T11:49:39.927Z,42.98
2023-03-18T11:50:54.512Z,41.86
2023-03-18T11:52:19.800Z,44.43
2023-03-18T11:53:29.675Z,43.94
2023-03-18T11:54:47.401Z,43.54
2023-03-18T11:55:53.572Z,42.83
2023-03-18T11:56:57.430Z,41.80
2023-03-18T11:58:31.368Z,40.03
2023-03-18T11:59:52.461Z,39.79
2023-03-18T12:01:00.503Z,39.10
2023-03-18T12:02:25.091Z,38.78
2023-03-18T12:03:53.601Z,39.21
2023-03-18T12:05:21.232Z,38.01
2023-03-18T12:06:24.939Z,37.05
2023-03-18T12:07:43.421Z,36.11
2023-03-18T12:09:03.273Z,34.70
2023-03-18T12:10:19.735Z,34.23
2023-03-18T12:11:34.911Z,34.81
2023-03-18T12:12:53.522Z,35.57
2023-03-18T12:14:03.976Z,38.38
2023-03-18T12:15:16.637Z,36.39
2023-03-18T12:16:36.403Z,36.31
2023-03-18T12:17:50.224Z,33.81
2023-03-18T12:19:17.569Z,33.64
2023-03-18T12:20:40.382Z,34.46
2023-03-18T12:21:56.374Z,35.49
2023-03-18T12:23:10.679Z,37.24
2023-03-18T12:24:38.222Z,35.90
2023-03-18T12:25:52.197Z,38.53
2023-03-18T12:27:04.719Z,37.49
2023-03-18T12:28:13.801Z,37.44
2023-03-18T12:29:37.441Z,35.20
2023-03-18T12:30:56.171Z,38.03
2023-03-18T12:32:08.018Z,38.24
2023-03-18T12:33:22.798Z,37.21
2023-03-18T12:34:43.481Z,36.89
2023-03-18T12:35:51.401Z,35.93
2023-03-18T12:37:05.086Z,35.43
2023-03-18T12:38:38.380Z,36.59
2023-03-18T12:40:16.686Z,37.66
2023-03-18T12:41:25.148Z,36.17
2023-03-18T12:42:39.556Z,36.03
2023-03-18T12:43:51.635Z,35.77
2023-03-18T12:45:00.906Z,35.25
2023-03-18T12:46:09.358Z,34.82
2023-03-18T12:47:18.056Z,33.89
2023-03-18T12:48:42.663Z,34.62
2023-03-18T12:49:50.314Z,36.01
2023-03-18T12:50:58.428Z,39.68
2023-03-18T12:52:06.344Z,39.63
2023-03-18T12:53:16.478Z,42.02
2023-03-18T12:54:25.676Z,39.59
2023-03-18T12:55:29.333Z,37.99
2023-03-18T12:56:33.265Z,36.86
2023-03-18T12:57:44.359Z,37.11
2023-03-18T12:58:51.345Z,37.19
2023-03-18T12:59:59.093Z,37.28
2023-03-18T13:01:07.261Z,37.07
2023-03-18T13:02:27.022Z,36.22
2023-03-18T13:03:33.927Z,37.14
2023-03-18T13:04:38.611Z,37.98
2023-03-18T13:05:49.929Z,40.23
2023-03-18T13:07:02.099Z,43.12
2023-03-18T13:08:46.987Z,42.19
2023-03-18T13:09:54.099Z,41.31
2023-03-18T13:11:06.278Z,41.26
2023-03-18T13:12:13.459Z,40.61
2023-03-18T13:13:16.293Z,39.13
2023-03-18T13:14:27.268Z,38.20
2023-03-18T13:15:35.257Z,38.34
2023-03-18T13:16:38.491Z,38.66
2023-03-18T13:17:44.585Z,41.20
2023-03-18T13:18:50.424Z,40.58
2023-03-18T13:19:53.289Z,40.47
2023-03-18T13:20:59.026Z,39.90
2023-03-18T13:22:17.657Z,38.40
2023-03-18T13:23:41.372Z,38.58
2023-03-18T13:25:00.272Z,37.65
2023-03-18T13:26:15.640Z,37.57
2023-03-18T13:27:41.764Z,38.80
2023-03-18T13:28:56.794Z,38.45
2023-03-18T13:30:08.224Z,39.17
2023-03-18T13:31:21.277Z,40.19
2023-03-18T13:32:40.455Z,41.04
2023-03-18T13:33:55.864Z,41.48
2023-03-18T13:35:15.857Z,42.72
2023-03-18T13:36:50.819Z,44.94
2023-03-18T13:38:25.887Z,46.65
2023-03-18T13:39:43.657Z,47.13
2023-03-18T13:41:06.281Z,44.35
2023-03-18T13:42:26.224Z,42.28
2023-03-18T13:43:29.857Z,42.13
2023-03-18T13:44:40.952Z,40.33
2023-03-18T13:45:49.077Z,39.07
2023-03-18T13:46:57.566Z,39.79
2023-03-18T13:48:02.778Z,40.79
2023-03-18T13:49:04.540Z,39.48
2023-03-18T13:50:27.207Z,40.07
2023-03-18T13:51:53.126Z,39.50
2023-03-18T13:52:57.875Z,38.57
2023-03-18T13:54:06.702Z,37.54
2023-03-18T13:55:25.515Z,37.08
2023-03-18T13:56:33.128Z,35.22
2023-03-18T13:57:47.669Z,34.61
2023-03-18T13:58:52.541Z,35.17
2023-03-18T14:00:28.401Z,37.03
2023-03-18T14:01:35.733Z,37.59
2023-03-18T14:02:45.685Z,38.56
2023-03-18T14:03:57.155Z,38.56